Uruguaiana, Brazil
Current Conditions -  °F | °C
As of 1:00 PM on Sunday 21 Dec 2014 (Local Time) from SBUG Reporting Station
Broken Clouds Broken Clouds  
Wind Chill: 72°   Ceiling: 10000
Heat Index: 72°   Visibility: 6mi
Dew Point: 66°   Wind: 13mph
Humidity: 83%   Direction: 200°SSW
Pressure: 29.62"   Gusts: NA
Location:  29.77°S, 57.09°W
Report Text: SBUG 211500Z 20011KT 9999 SCT014 BKN100 22/19 Q1003
Loading
Personal Weather Stations






























Interactive Weather Map New forecast layout! Learn more

10-Day Weather Forecast

Advertisements
Track Severe Weather on mobile